Glenwood, North Carolina
Current Conditions -  °F | °C
As of 6:15 AM on Monday 22 Dec 2014 (Local Time) from KFQD Reporting Station
Light Rain Light Rain  
Wind Chill: 37°   Ceiling: 700
Heat Index: 40°   Visibility: 3mi
Dew Point: 40°   Wind: 5mph
Humidity: 98%   Direction: 10°N
Pressure: 30.12"   Gusts: NA
Location:  35.61°N, 81.98°W
Report Text: KFQD 221115Z AUTO 01004KT 3SM -RA BKN007 OVC010 05/04 A3012 RMK AO2 T00460043
Loading
Personal Weather Stations






























Interactive Weather Map New forecast layout! Learn more

10-Day Weather Forecast

Advertisements
Track Severe Weather on mobile